sensor_id;sensor_type;location;lat;lon;timestamp;P1;durP1;ratioP1;P2;durP2;ratioP2
10991;SDS011;5549;47.028;15.514;2024-03-23T00:54:54;2.97;;;1.10;;
10991;SDS011;5549;47.028;15.514;2024-03-23T00:57:21;3.40;;;1.60;;
10991;SDS011;5549;47.028;15.514;2024-03-23T00:59:50;3.28;;;1.60;;
10991;SDS011;5549;47.028;15.514;2024-03-23T01:02:18;3.42;;;1.60;;
10991;SDS011;5549;47.028;15.514;2024-03-23T01:04:44;4.82;;;1.42;;
10991;SDS011;5549;47.028;15.514;2024-03-23T01:07:12;3.58;;;1.40;;
10991;SDS011;5549;47.028;15.514;2024-03-23T01:09:43;3.03;;;1.20;;
10991;SDS011;5549;47.028;15.514;2024-03-23T01:12:11;3.05;;;1.35;;
10991;SDS011;5549;47.028;15.514;2024-03-23T01:14:38;3.53;;;1.42;;
10991;SDS011;5549;47.028;15.514;2024-03-23T01:17:05;3.20;;;1.42;;
10991;SDS011;5549;47.028;15.514;2024-03-23T01:19:32;5.70;;;1.98;;
10991;SDS011;5549;47.028;15.514;2024-03-23T01:22:02;3.17;;;1.70;;
10991;SDS011;5549;47.028;15.514;2024-03-23T01:24:29;3.40;;;1.48;;
10991;SDS011;5549;47.028;15.514;2024-03-23T01:26:58;4.40;;;1.48;;
10991;SDS011;5549;47.028;15.514;2024-03-23T01:29:25;4.50;;;2.10;;
10991;SDS011;5549;47.028;15.514;2024-03-23T01:31:52;3.92;;;1.52;;
10991;SDS011;5549;47.028;15.514;2024-03-23T01:34:21;4.50;;;1.80;;
10991;SDS011;5549;47.028;15.514;2024-03-23T01:36:52;4.15;;;1.55;;
10991;SDS011;5549;47.028;15.514;2024-03-23T01:39:21;2.80;;;1.17;;
10991;SDS011;5549;47.028;15.514;2024-03-23T01:41:49;4.18;;;1.58;;
10991;SDS011;5549;47.028;15.514;2024-03-23T01:44:18;2.85;;;1.35;;
10991;SDS011;5549;47.028;15.514;2024-03-23T01:46:47;2.85;;;1.30;;
10991;SDS011;5549;47.028;15.514;2024-03-23T01:49:14;4.43;;;1.35;;
10991;SDS011;5549;47.028;15.514;2024-03-23T01:51:45;5.47;;;2.00;;
10991;SDS011;5549;47.028;15.514;2024-03-23T01:54:11;3.55;;;1.65;;
10991;SDS011;5549;47.028;15.514;2024-03-23T01:56:42;4.10;;;1.63;;
10991;SDS011;5549;47.028;15.514;2024-03-23T01:59:11;4.60;;;1.83;;
10991;SDS011;5549;47.028;15.514;2024-03-23T02:01:40;5.63;;;2.03;;
10991;SDS011;5549;47.028;15.514;2024-03-23T02:04:09;3.42;;;1.67;;
10991;SDS011;5549;47.028;15.514;2024-03-23T02:06:37;4.47;;;1.77;;
10991;SDS011;5549;47.028;15.514;2024-03-23T02:09:06;4.85;;;1.30;;
10991;SDS011;5549;47.028;15.514;2024-03-23T02:11:35;4.70;;;1.70;;
10991;SDS011;5549;47.028;15.514;2024-03-23T02:14:02;4.28;;;1.92;;
10991;SDS011;5549;47.028;15.514;2024-03-23T02:16:31;4.40;;;1.38;;
10991;SDS011;5549;47.028;15.514;2024-03-23T02:19:02;3.95;;;1.60;;
10991;SDS011;5549;47.028;15.514;2024-03-23T02:21:31;6.43;;;1.75;;
10991;SDS011;5549;47.028;15.514;2024-03-23T02:24:02;5.40;;;1.83;;
10991;SDS011;5549;47.028;15.514;2024-03-23T02:26:33;4.05;;;1.65;;
10991;SDS011;5549;47.028;15.514;2024-03-23T02:29:02;3.80;;;1.55;;
10991;SDS011;5549;47.028;15.514;2024-03-23T02:31:30;4.00;;;1.35;;
10991;SDS011;5549;47.028;15.514;2024-03-23T02:33:57;4.20;;;1.73;;
10991;SDS011;5549;47.028;15.514;2024-03-23T02:36:25;4.38;;;1.67;;
10991;SDS011;5549;47.028;15.514;2024-03-23T02:38:54;5.80;;;1.65;;
10991;SDS011;5549;47.028;15.514;2024-03-23T02:41:24;3.03;;;1.30;;
10991;SDS011;5549;47.028;15.514;2024-03-23T02:43:51;4.78;;;1.80;;
10991;SDS011;5549;47.028;15.514;2024-03-23T02:46:20;3.13;;;1.35;;
10991;SDS011;5549;47.028;15.514;2024-03-23T02:51:15;2.95;;;1.48;;
10991;SDS011;5549;47.028;15.514;2024-03-23T02:56:11;3.80;;;1.45;;
10991;SDS011;5549;47.028;15.514;2024-03-23T02:58:45;5.05;;;1.60;;
10991;SDS011;5549;47.028;15.514;2024-03-23T03:01:12;4.97;;;1.83;;
10991;SDS011;5549;47.028;15.514;2024-03-23T03:03:41;3.83;;;1.48;;
10991;SDS011;5549;47.028;15.514;2024-03-23T03:06:12;3.03;;;1.48;;
10991;SDS011;5549;47.028;15.514;2024-03-23T03:08:52;3.58;;;1.35;;
10991;SDS011;5549;47.028;15.514;2024-03-23T03:11:22;3.05;;;1.45;;
10991;SDS011;5549;47.028;15.514;2024-03-23T03:13:52;3.45;;;1.27;;
10991;SDS011;5549;47.028;15.514;2024-03-23T03:16:21;3.40;;;1.50;;
10991;SDS011;5549;47.028;15.514;2024-03-23T03:18:48;3.72;;;1.30;;
10991;SDS011;5549;47.028;15.514;2024-03-23T03:21:17;5.30;;;1.25;;
10991;SDS011;5549;47.028;15.514;2024-03-23T03:23:49;4.32;;;1.52;;
10991;SDS011;5549;47.028;15.514;2024-03-23T03:26:17;4.80;;;1.50;;
10991;SDS011;5549;47.028;15.514;2024-03-23T03:28:46;3.85;;;1.60;;
10991;SDS011;5549;47.028;15.514;2024-03-23T03:31:15;5.00;;;1.42;;
10991;SDS011;5549;47.028;15.514;2024-03-23T03:33:42;3.22;;;1.40;;
10991;SDS011;5549;47.028;15.514;2024-03-23T03:36:13;3.10;;;1.50;;
10991;SDS011;5549;47.028;15.514;2024-03-23T03:38:41;3.08;;;1.10;;
10991;SDS011;5549;47.028;15.514;2024-03-23T03:41:11;3.47;;;1.40;;
10991;SDS011;5549;47.028;15.514;2024-03-23T03:43:38;6.10;;;1.35;;
10991;SDS011;5549;47.028;15.514;2024-03-23T03:46:06;3.65;;;1.10;;
10991;SDS011;5549;47.028;15.514;2024-03-23T03:48:35;3.33;;;1.10;;
10991;SDS011;5549;47.028;15.514;2024-03-23T03:51:03;4.65;;;1.60;;
10991;SDS011;5549;47.028;15.514;2024-03-23T03:53:32;2.63;;;1.15;;
10991;SDS011;5549;47.028;15.514;2024-03-23T03:56:00;3.63;;;1.10;;
10991;SDS011;5549;47.028;15.514;2024-03-23T03:58:27;3.88;;;1.25;;
10991;SDS011;5549;47.028;15.514;2024-03-23T04:00:55;2.65;;;1.08;;
10991;SDS011;5549;47.028;15.514;2024-03-23T04:03:24;2.47;;;1.00;;
10991;SDS011;5549;47.028;15.514;2024-03-23T04:05:56;4.25;;;1.25;;
10991;SDS011;5549;47.028;15.514;2024-03-23T04:08:29;5.85;;;1.25;;
10991;SDS011;5549;47.028;15.514;2024-03-23T04:10:59;4.97;;;1.35;;
10991;SDS011;5549;47.028;15.514;2024-03-23T04:13:26;3.97;;;1.05;;
10991;SDS011;5549;47.028;15.514;2024-03-23T04:15:54;2.97;;;1.30;;
10991;SDS011;5549;47.028;15.514;2024-03-23T04:18:25;3.58;;;1.02;;
10991;SDS011;5549;47.028;15.514;2024-03-23T04:20:58;3.90;;;1.25;;
10991;SDS011;5549;47.028;15.514;2024-03-23T04:23:25;2.92;;;1.10;;
10991;SDS011;5549;47.028;15.514;2024-03-23T04:25:52;2.25;;;0.95;;
10991;SDS011;5549;47.028;15.514;2024-03-23T04:28:19;4.00;;;1.25;;
10991;SDS011;5549;47.028;15.514;2024-03-23T04:30:47;2.33;;;0.90;;
10991;SDS011;5549;47.028;15.514;2024-03-23T04:33:15;2.65;;;0.90;;
10991;SDS011;5549;47.028;15.514;2024-03-23T04:35:48;2.83;;;0.98;;
10991;SDS011;5549;47.028;15.514;2024-03-23T04:38:17;8.43;;;1.40;;
10991;SDS011;5549;47.028;15.514;2024-03-23T04:40:53;2.70;;;1.20;;
10991;SDS011;5549;47.028;15.514;2024-03-23T04:43:25;3.20;;;1.27;;
10991;SDS011;5549;47.028;15.514;2024-03-23T04:45:56;2.88;;;1.00;;
10991;SDS011;5549;47.028;15.514;2024-03-23T04:48:24;3.35;;;1.40;;
10991;SDS011;5549;47.028;15.514;2024-03-23T04:50:57;3.65;;;1.17;;
10991;SDS011;5549;47.028;15.514;2024-03-23T04:53:26;5.03;;;1.33;;
10991;SDS011;5549;47.028;15.514;2024-03-23T04:55:55;4.20;;;0.90;;
10991;SDS011;5549;47.028;15.514;2024-03-23T04:58:25;3.72;;;1.10;;
10991;SDS011;5549;47.028;15.514;2024-03-23T05:00:53;4.78;;;1.15;;
10991;SDS011;5549;47.028;15.514;2024-03-23T05:03:23;2.97;;;1.25;;
10991;SDS011;5549;47.028;15.514;2024-03-23T05:05:52;2.83;;;1.00;;
10991;SDS011;5549;47.028;15.514;2024-03-23T05:08:19;3.50;;;1.35;;
10991;SDS011;5549;47.028;15.514;2024-03-23T05:13:15;2.28;;;0.90;;
10991;SDS011;5549;47.028;15.514;2024-03-23T05:15:44;2.55;;;0.90;;
10991;SDS011;5549;47.028;15.514;2024-03-23T05:18:18;3.25;;;1.20;;
10991;SDS011;5549;47.028;15.514;2024-03-23T05:20:45;3.40;;;1.17;;
10991;SDS011;5549;47.028;15.514;2024-03-23T05:23:12;3.45;;;1.17;;
10991;SDS011;5549;47.028;15.514;2024-03-23T05:28:10;3.20;;;1.27;;
10991;SDS011;5549;47.028;15.514;2024-03-23T05:30:37;3.78;;;1.23;;
10991;SDS011;5549;47.028;15.514;2024-03-23T05:33:05;3.53;;;0.98;;
10991;SDS011;5549;47.028;15.514;2024-03-23T05:35:32;6.10;;;1.20;;
10991;SDS011;5549;47.028;15.514;2024-03-23T05:38:00;2.20;;;0.98;;
10991;SDS011;5549;47.028;15.514;2024-03-23T05:40:29;3.88;;;0.90;;
10991;SDS011;5549;47.028;15.514;2024-03-23T05:42:59;2.70;;;0.88;;
10991;SDS011;5549;47.028;15.514;2024-03-23T05:45:27;3.22;;;0.90;;
10991;SDS011;5549;47.028;15.514;2024-03-23T05:47:54;2.28;;;0.85;;
10991;SDS011;5549;47.028;15.514;2024-03-23T05:50:22;3.25;;;1.13;;
10991;SDS011;5549;47.028;15.514;2024-03-23T05:52:50;2.92;;;0.95;;
10991;SDS011;5549;47.028;15.514;2024-03-23T05:55:19;3.67;;;1.08;;
10991;SDS011;5549;47.028;15.514;2024-03-23T05:57:46;2.45;;;0.77;;
10991;SDS011;5549;47.028;15.514;2024-03-23T06:00:13;3.83;;;1.10;;
10991;SDS011;5549;47.028;15.514;2024-03-23T06:02:44;2.80;;;1.00;;
10991;SDS011;5549;47.028;15.514;2024-03-23T06:05:10;4.00;;;1.10;;
10991;SDS011;5549;47.028;15.514;2024-03-23T06:07:38;3.33;;;1.25;;
10991;SDS011;5549;47.028;15.514;2024-03-23T06:10:08;4.22;;;1.48;;
10991;SDS011;5549;47.028;15.514;2024-03-23T06:12:38;3.20;;;1.13;;
10991;SDS011;5549;47.028;15.514;2024-03-23T06:15:07;2.58;;;1.05;;
10991;SDS011;5549;47.028;15.514;2024-03-23T06:17:36;2.35;;;1.08;;
10991;SDS011;5549;47.028;15.514;2024-03-23T06:20:07;4.03;;;1.42;;
10991;SDS011;5549;47.028;15.514;2024-03-23T06:22:36;4.13;;;1.02;;
10991;SDS011;5549;47.028;15.514;2024-03-23T06:25:06;2.15;;;0.80;;
10991;SDS011;5549;47.028;15.514;2024-03-23T06:27:34;3.13;;;1.15;;
10991;SDS011;5549;47.028;15.514;2024-03-23T06:30:03;3.88;;;1.08;;
10991;SDS011;5549;47.028;15.514;2024-03-23T06:32:35;3.33;;;1.30;;
10991;SDS011;5549;47.028;15.514;2024-03-23T06:35:04;3.75;;;1.08;;
10991;SDS011;5549;47.028;15.514;2024-03-23T06:37:35;3.15;;;1.02;;
10991;SDS011;5549;47.028;15.514;2024-03-23T06:40:05;3.15;;;1.20;;
10991;SDS011;5549;47.028;15.514;2024-03-23T06:42:35;4.95;;;1.30;;
10991;SDS011;5549;47.028;15.514;2024-03-23T06:45:03;4.47;;;1.10;;
10991;SDS011;5549;47.028;15.514;2024-03-23T06:47:32;3.42;;;1.20;;
10991;SDS011;5549;47.028;15.514;2024-03-23T06:50:02;3.30;;;1.17;;
10991;SDS011;5549;47.028;15.514;2024-03-23T06:52:34;4.43;;;1.13;;
10991;SDS011;5549;47.028;15.514;2024-03-23T06:55:01;3.80;;;1.10;;
10991;SDS011;5549;47.028;15.514;2024-03-23T06:57:29;3.92;;;0.50;;
10991;SDS011;5549;47.028;15.514;2024-03-23T06:59:58;2.67;;;0.98;;
10991;SDS011;5549;47.028;15.514;2024-03-23T07:02:28;2.85;;;1.10;;
10991;SDS011;5549;47.028;15.514;2024-03-23T07:04:55;2.40;;;1.20;;
10991;SDS011;5549;47.028;15.514;2024-03-23T07:07:24;3.53;;;1.42;;
10991;SDS011;5549;47.028;15.514;2024-03-23T07:09:53;2.20;;;1.05;;
10991;SDS011;5549;47.028;15.514;2024-03-23T07:12:21;3.90;;;1.35;;
10991;SDS011;5549;47.028;15.514;2024-03-23T07:14:50;3.30;;;1.13;;
10991;SDS011;5549;47.028;15.514;2024-03-23T07:17:18;4.28;;;1.15;;
10991;SDS011;5549;47.028;15.514;2024-03-23T07:19:44;3.70;;;1.35;;
10991;SDS011;5549;47.028;15.514;2024-03-23T07:22:13;4.05;;;1.73;;
10991;SDS011;5549;47.028;15.514;2024-03-23T07:24:42;2.92;;;1.20;;
10991;SDS011;5549;47.028;15.514;2024-03-23T07:27:12;3.38;;;1.10;;
10991;SDS011;5549;47.028;15.514;2024-03-23T07:29:38;3.95;;;1.20;;
10991;SDS011;5549;47.028;15.514;2024-03-23T07:32:08;3.85;;;1.38;;
10991;SDS011;5549;47.028;15.514;2024-03-23T07:34:39;4.13;;;1.40;;
10991;SDS011;5549;47.028;15.514;2024-03-23T07:37:11;4.35;;;1.48;;
10991;SDS011;5549;47.028;15.514;2024-03-23T07:39:40;3.03;;;1.10;;
10991;SDS011;5549;47.028;15.514;2024-03-23T07:42:07;4.43;;;1.58;;
10991;SDS011;5549;47.028;15.514;2024-03-23T07:44:35;3.40;;;1.70;;
10991;SDS011;5549;47.028;15.514;2024-03-23T07:47:06;4.10;;;1.63;;
10991;SDS011;5549;47.028;15.514;2024-03-23T07:49:32;4.80;;;1.63;;
10991;SDS011;5549;47.028;15.514;2024-03-23T07:52:00;5.15;;;1.90;;
10991;SDS011;5549;47.028;15.514;2024-03-23T07:54:28;4.53;;;1.60;;
10991;SDS011;5549;47.028;15.514;2024-03-23T07:56:56;4.93;;;1.67;;
10991;SDS011;5549;47.028;15.514;2024-03-23T07:59:23;5.45;;;1.80;;
10991;SDS011;5549;47.028;15.514;2024-03-23T08:01:52;3.55;;;1.90;;
10991;SDS011;5549;47.028;15.514;2024-03-23T08:04:21;3.05;;;1.52;;
10991;SDS011;5549;47.028;15.514;2024-03-23T08:06:51;3.38;;;1.70;;
10991;SDS011;5549;47.028;15.514;2024-03-23T08:09:17;3.42;;;1.90;;
10991;SDS011;5549;47.028;15.514;2024-03-23T08:11:47;5.15;;;1.85;;
10991;SDS011;5549;47.028;15.514;2024-03-23T08:14:17;4.18;;;1.70;;
10991;SDS011;5549;47.028;15.514;2024-03-23T08:16:47;7.97;;;2.67;;
10991;SDS011;5549;47.028;15.514;2024-03-23T08:19:16;4.80;;;2.13;;
10991;SDS011;5549;47.028;15.514;2024-03-23T08:21:44;4.00;;;1.75;;
10991;SDS011;5549;47.028;15.514;2024-03-23T08:24:13;5.22;;;2.00;;
10991;SDS011;5549;47.028;15.514;2024-03-23T08:26:40;4.13;;;2.20;;
10991;SDS011;5549;47.028;15.514;2024-03-23T08:29:07;4.63;;;1.98;;
10991;SDS011;5549;47.028;15.514;2024-03-23T08:31:37;5.47;;;2.33;;
10991;SDS011;5549;47.028;15.514;2024-03-23T08:34:05;6.28;;;2.38;;
10991;SDS011;5549;47.028;15.514;2024-03-23T08:36:34;5.53;;;2.50;;
10991;SDS011;5549;47.028;15.514;2024-03-23T08:39:02;6.32;;;2.63;;
10991;SDS011;5549;47.028;15.514;2024-03-23T08:41:29;5.68;;;2.00;;
10991;SDS011;5549;47.028;15.514;2024-03-23T08:43:58;5.60;;;2.83;;
10991;SDS011;5549;47.028;15.514;2024-03-23T08:46:26;5.85;;;2.25;;
10991;SDS011;5549;47.028;15.514;2024-03-23T08:48:55;6.10;;;1.98;;
10991;SDS011;5549;47.028;15.514;2024-03-23T08:51:22;5.25;;;2.00;;
10991;SDS011;5549;47.028;15.514;2024-03-23T08:53:50;4.80;;;2.03;;
10991;SDS011;5549;47.028;15.514;2024-03-23T08:56:18;4.88;;;2.30;;
10991;SDS011;5549;47.028;15.514;2024-03-23T08:58:48;5.32;;;2.17;;
10991;SDS011;5549;47.028;15.514;2024-03-23T09:01:18;7.00;;;2.65;;
10991;SDS011;5549;47.028;15.514;2024-03-23T09:03:44;3.85;;;1.92;;
10991;SDS011;5549;47.028;15.514;2024-03-23T09:06:12;6.10;;;2.08;;
10991;SDS011;5549;47.028;15.514;2024-03-23T09:08:40;6.57;;;1.92;;
10991;SDS011;5549;47.028;15.514;2024-03-23T09:11:09;4.68;;;1.60;;
10991;SDS011;5549;47.028;15.514;2024-03-23T09:13:40;3.65;;;1.45;;
10991;SDS011;5549;47.028;15.514;2024-03-23T09:16:08;2.78;;;1.25;;
10991;SDS011;5549;47.028;15.514;2024-03-23T09:18:35;2.97;;;1.40;;
10991;SDS011;5549;47.028;15.514;2024-03-23T09:21:10;6.93;;;1.40;;
10991;SDS011;5549;47.028;15.514;2024-03-23T09:23:39;3.05;;;1.45;;
10991;SDS011;5549;47.028;15.514;2024-03-23T09:26:06;2.58;;;1.10;;
10991;SDS011;5549;47.028;15.514;2024-03-23T09:28:37;3.17;;;1.00;;
10991;SDS011;5549;47.028;15.514;2024-03-23T09:31:05;2.38;;;1.35;;
10991;SDS011;5549;47.028;15.514;2024-03-23T09:33:35;5.82;;;1.40;;
10991;SDS011;5549;47.028;15.514;2024-03-23T09:36:03;4.05;;;1.10;;
10991;SDS011;5549;47.028;15.514;2024-03-23T09:38:31;4.53;;;1.27;;
10991;SDS011;5549;47.028;15.514;2024-03-23T09:40:59;2.78;;;1.05;;
10991;SDS011;5549;47.028;15.514;2024-03-23T09:43:27;2.97;;;1.20;;
10991;SDS011;5549;47.028;15.514;2024-03-23T09:45:57;2.58;;;1.20;;
10991;SDS011;5549;47.028;15.514;2024-03-23T09:48:24;3.08;;;1.60;;
10991;SDS011;5549;47.028;15.514;2024-03-23T09:50:51;4.10;;;1.88;;
10991;SDS011;5549;47.028;15.514;2024-03-23T09:53:20;5.07;;;1.30;;
10991;SDS011;5549;47.028;15.514;2024-03-23T09:55:48;2.88;;;1.25;;
10991;SDS011;5549;47.028;15.514;2024-03-23T09:58:17;2.97;;;1.20;;
10991;SDS011;5549;47.028;15.514;2024-03-23T10:00:49;3.50;;;1.50;;
10991;SDS011;5549;47.028;15.514;2024-03-23T10:03:18;3.25;;;1.27;;
10991;SDS011;5549;47.028;15.514;2024-03-23T10:05:46;3.50;;;1.40;;
10991;SDS011;5549;47.028;15.514;2024-03-23T10:08:18;2.45;;;1.08;;
10991;SDS011;5549;47.028;15.514;2024-03-23T10:10:46;2.58;;;1.10;;
10991;SDS011;5549;47.028;15.514;2024-03-23T10:13:24;3.38;;;1.50;;
10991;SDS011;5549;47.028;15.514;2024-03-23T10:15:57;3.40;;;1.40;;
10991;SDS011;5549;47.028;15.514;2024-03-23T10:18:25;3.70;;;1.80;;
10991;SDS011;5549;47.028;15.514;2024-03-23T10:21:06;3.63;;;1.58;;
10991;SDS011;5549;47.028;15.514;2024-03-23T10:23:34;4.28;;;1.67;;
10991;SDS011;5549;47.028;15.514;2024-03-23T10:26:16;3.85;;;1.52;;
10991;SDS011;5549;47.028;15.514;2024-03-23T10:28:51;4.05;;;1.75;;
10991;SDS011;5549;47.028;15.514;2024-03-23T10:31:23;3.40;;;1.48;;
10991;SDS011;5549;47.028;15.514;2024-03-23T10:33:50;6.18;;;2.13;;
10991;SDS011;5549;47.028;15.514;2024-03-23T10:36:22;5.85;;;2.00;;
10991;SDS011;5549;47.028;15.514;2024-03-23T10:38:50;7.47;;;1.65;;
10991;SDS011;5549;47.028;15.514;2024-03-23T10:41:19;4.05;;;2.53;;
10991;SDS011;5549;47.028;15.514;2024-03-23T10:43:46;4.30;;;1.80;;
10991;SDS011;5549;47.028;15.514;2024-03-23T10:46:16;4.20;;;1.98;;
10991;SDS011;5549;47.028;15.514;2024-03-23T10:48:46;3.33;;;2.35;;
10991;SDS011;5549;47.028;15.514;2024-03-23T10:51:17;3.53;;;1.63;;
10991;SDS011;5549;47.028;15.514;2024-03-23T10:53:44;3.65;;;1.60;;
10991;SDS011;5549;47.028;15.514;2024-03-23T10:56:15;4.22;;;2.08;;
10991;SDS011;5549;47.028;15.514;2024-03-23T10:58:44;3.28;;;1.25;;
10991;SDS011;5549;47.028;15.514;2024-03-23T11:01:15;3.72;;;1.83;;
10991;SDS011;5549;47.028;15.514;2024-03-23T11:03:44;2.50;;;1.23;;
10991;SDS011;5549;47.028;15.514;2024-03-23T11:09:01;4.45;;;1.20;;
10991;SDS011;5549;47.028;15.514;2024-03-23T11:11:31;3.33;;;1.60;;
10991;SDS011;5549;47.028;15.514;2024-03-23T11:14:01;4.13;;;1.77;;
10991;SDS011;5549;47.028;15.514;2024-03-23T11:17:01;3.30;;;1.50;;
10991;SDS011;5549;47.028;15.514;2024-03-23T11:19:38;4.30;;;1.92;;
10991;SDS011;5549;47.028;15.514;2024-03-23T11:22:09;4.78;;;1.85;;
10991;SDS011;5549;47.028;15.514;2024-03-23T11:24:38;3.55;;;1.92;;
10991;SDS011;5549;47.028;15.514;2024-03-23T11:27:15;4.53;;;1.92;;
10991;SDS011;5549;47.028;15.514;2024-03-23T11:29:44;4.22;;;2.15;;
10991;SDS011;5549;47.028;15.514;2024-03-23T11:32:14;5.22;;;2.22;;
10991;SDS011;5549;47.028;15.514;2024-03-23T11:34:44;5.65;;;2.17;;
10991;SDS011;5549;47.028;15.514;2024-03-23T11:37:12;4.20;;;2.00;;
10991;SDS011;5549;47.028;15.514;2024-03-23T11:39:40;4.10;;;2.30;;
10991;SDS011;5549;47.028;15.514;2024-03-23T11:42:11;3.38;;;1.70;;
10991;SDS011;5549;47.028;15.514;2024-03-23T11:44:41;2.25;;;1.30;;
10991;SDS011;5549;47.028;15.514;2024-03-23T11:47:08;2.75;;;1.40;;
10991;SDS011;5549;47.028;15.514;2024-03-23T11:49:36;3.40;;;1.42;;
10991;SDS011;5549;47.028;15.514;2024-03-23T11:52:07;3.67;;;2.00;;
10991;SDS011;5549;47.028;15.514;2024-03-23T11:54:36;3.47;;;1.55;;
10991;SDS011;5549;47.028;15.514;2024-03-23T11:57:04;4.15;;;2.30;;
10991;SDS011;5549;47.028;15.514;2024-03-23T11:59:34;3.60;;;2.33;;
10991;SDS011;5549;47.028;15.514;2024-03-23T12:02:06;3.55;;;1.77;;
10991;SDS011;5549;47.028;15.514;2024-03-23T12:04:36;4.63;;;1.92;;
10991;SDS011;5549;47.028;15.514;2024-03-23T12:07:16;4.53;;;2.03;;
10991;SDS011;5549;47.028;15.514;2024-03-23T12:09:46;3.75;;;1.90;;
10991;SDS011;5549;47.028;15.514;2024-03-23T12:12:30;4.05;;;2.40;;
10991;SDS011;5549;47.028;15.514;2024-03-23T12:15:03;4.80;;;2.63;;
10991;SDS011;5549;47.028;15.514;2024-03-23T12:17:33;6.18;;;2.80;;
10991;SDS011;5549;47.028;15.514;2024-03-23T12:20:03;5.80;;;2.53;;
10991;SDS011;5549;47.028;15.514;2024-03-23T12:22:34;4.57;;;2.38;;
10991;SDS011;5549;47.028;15.514;2024-03-23T12:25:03;6.30;;;2.03;;
10991;SDS011;5549;47.028;15.514;2024-03-23T12:27:32;6.53;;;2.35;;
10991;SDS011;5549;47.028;15.514;2024-03-23T12:29:58;3.72;;;1.95;;
10991;SDS011;5549;47.028;15.514;2024-03-23T12:32:30;2.33;;;1.33;;
10991;SDS011;5549;47.028;15.514;2024-03-23T12:34:56;3.67;;;1.98;;
10991;SDS011;5549;47.028;15.514;2024-03-23T12:37:24;2.70;;;1.17;;
10991;SDS011;5549;47.028;15.514;2024-03-23T12:39:52;2.65;;;1.40;;
10991;SDS011;5549;47.028;15.514;2024-03-23T12:42:22;2.20;;;1.20;;
10991;SDS011;5549;47.028;15.514;2024-03-23T12:44:51;3.50;;;1.20;;
10991;SDS011;5549;47.028;15.514;2024-03-23T12:47:22;3.42;;;1.20;;
10991;SDS011;5549;47.028;15.514;2024-03-23T12:49:49;3.00;;;1.33;;
10991;SDS011;5549;47.028;15.514;2024-03-23T12:52:17;1.75;;;0.90;;
10991;SDS011;5549;47.028;15.514;2024-03-23T12:54:48;2.22;;;1.13;;
10991;SDS011;5549;47.028;15.514;2024-03-23T12:57:19;3.10;;;1.05;;
10991;SDS011;5549;47.028;15.514;2024-03-23T12:59:45;2.60;;;0.80;;
10991;SDS011;5549;47.028;15.514;2024-03-23T13:02:16;2.30;;;0.98;;
10991;SDS011;5549;47.028;15.514;2024-03-23T13:04:45;2.85;;;1.33;;
10991;SDS011;5549;47.028;15.514;2024-03-23T13:07:18;2.00;;;0.50;;
10991;SDS011;5549;47.028;15.514;2024-03-23T13:09:52;7.60;;;0.95;;
10991;SDS011;5549;47.028;15.514;2024-03-23T13:12:23;2.53;;;0.77;;
10991;SDS011;5549;47.028;15.514;2024-03-23T13:14:52;2.30;;;1.27;;
10991;SDS011;5549;47.028;15.514;2024-03-23T13:17:19;2.85;;;1.17;;
10991;SDS011;5549;47.028;15.514;2024-03-23T13:19:48;2.15;;;0.73;;
10991;SDS011;5549;47.028;15.514;2024-03-23T13:22:16;1.85;;;0.70;;
10991;SDS011;5549;47.028;15.514;2024-03-23T13:24:43;2.53;;;0.88;;
10991;SDS011;5549;47.028;15.514;2024-03-23T13:27:10;2.47;;;1.13;;
10991;SDS011;5549;47.028;15.514;2024-03-23T13:29:41;1.77;;;0.63;;
10991;SDS011;5549;47.028;15.514;2024-03-23T13:32:10;3.80;;;0.85;;
10991;SDS011;5549;47.028;15.514;2024-03-23T13:34:39;4.35;;;1.48;;
10991;SDS011;5549;47.028;15.514;2024-03-23T13:37:09;3.97;;;1.02;;
10991;SDS011;5549;47.028;15.514;2024-03-23T13:39:35;1.70;;;0.50;;
10991;SDS011;5549;47.028;15.514;2024-03-23T13:42:03;3.65;;;1.05;;
10991;SDS011;5549;47.028;15.514;2024-03-23T13:44:30;2.35;;;1.02;;
10991;SDS011;5549;47.028;15.514;2024-03-23T13:47:02;2.42;;;1.20;;
10991;SDS011;5549;47.028;15.514;2024-03-23T13:49:31;2.80;;;0.77;;
10991;SDS011;5549;47.028;15.514;2024-03-23T13:51:59;2.60;;;1.02;;
10991;SDS011;5549;47.028;15.514;2024-03-23T13:54:26;1.70;;;0.60;;
10991;SDS011;5549;47.028;15.514;2024-03-23T13:56:56;2.35;;;0.93;;
10991;SDS011;5549;47.028;15.514;2024-03-23T13:59:25;3.80;;;0.80;;
10991;SDS011;5549;47.028;15.514;2024-03-23T14:01:53;3.40;;;1.02;;
10991;SDS011;5549;47.028;15.514;2024-03-23T14:04:21;2.05;;;1.08;;
10991;SDS011;5549;47.028;15.514;2024-03-23T14:06:52;3.92;;;1.08;;
10991;SDS011;5549;47.028;15.514;2024-03-23T14:09:21;10.23;;;1.20;;
10991;SDS011;5549;47.028;15.514;2024-03-23T14:11:53;3.55;;;1.08;;
10991;SDS011;5549;47.028;15.514;2024-03-23T14:14:19;3.80;;;1.27;;
10991;SDS011;5549;47.028;15.514;2024-03-23T14:16:49;3.55;;;1.02;;
10991;SDS011;5549;47.028;15.514;2024-03-23T14:19:16;2.55;;;1.25;;
10991;SDS011;5549;47.028;15.514;2024-03-23T14:21:48;2.35;;;1.00;;
10991;SDS011;5549;47.028;15.514;2024-03-23T14:24:17;3.17;;;1.10;;
10991;SDS011;5549;47.028;15.514;2024-03-23T14:26:44;2.95;;;1.58;;
10991;SDS011;5549;47.028;15.514;2024-03-23T14:29:11;2.90;;;1.10;;
10991;SDS011;5549;47.028;15.514;2024-03-23T14:31:41;2.83;;;1.00;;
10991;SDS011;5549;47.028;15.514;2024-03-23T14:34:08;2.92;;;1.40;;
10991;SDS011;5549;47.028;15.514;2024-03-23T14:36:41;2.72;;;1.42;;
10991;SDS011;5549;47.028;15.514;2024-03-23T14:39:11;1.90;;;0.98;;
10991;SDS011;5549;47.028;15.514;2024-03-23T14:41:40;2.90;;;1.00;;
10991;SDS011;5549;47.028;15.514;2024-03-23T14:44:09;3.63;;;1.00;;
10991;SDS011;5549;47.028;15.514;2024-03-23T14:46:38;2.53;;;0.77;;
10991;SDS011;5549;47.028;15.514;2024-03-23T14:49:07;2.42;;;1.00;;
10991;SDS011;5549;47.028;15.514;2024-03-23T14:51:37;1.60;;;0.77;;
10991;SDS011;5549;47.028;15.514;2024-03-23T14:54:06;3.00;;;0.98;;
10991;SDS011;5549;47.028;15.514;2024-03-23T14:56:37;2.88;;;0.98;;
10991;SDS011;5549;47.028;15.514;2024-03-23T14:59:05;2.25;;;1.05;;
10991;SDS011;5549;47.028;15.514;2024-03-23T15:01:34;1.60;;;0.70;;
10991;SDS011;5549;47.028;15.514;2024-03-23T15:04:04;2.53;;;0.95;;
10991;SDS011;5549;47.028;15.514;2024-03-23T15:06:32;1.77;;;0.90;;
10991;SDS011;5549;47.028;15.514;2024-03-23T15:09:01;2.85;;;1.00;;
10991;SDS011;5549;47.028;15.514;2024-03-23T15:11:34;2.55;;;1.00;;
10991;SDS011;5549;47.028;15.514;2024-03-23T15:14:05;2.05;;;0.60;;
10991;SDS011;5549;47.028;15.514;2024-03-23T15:32:01;1.45;;;0.10;;
10991;SDS011;5549;47.028;15.514;2024-03-23T15:34:28;0.95;;;0.17;;
10991;SDS011;5549;47.028;15.514;2024-03-23T15:36:57;3.00;;;0.30;;
10991;SDS011;5549;47.028;15.514;2024-03-23T15:39:28;0.82;;;0.13;;
10991;SDS011;5549;47.028;15.514;2024-03-23T15:42:02;0.73;;;0.10;;
10991;SDS011;5549;47.028;15.514;2024-03-23T15:44:31;2.60;;;0.10;;
10991;SDS011;5549;47.028;15.514;2024-03-23T15:46:58;0.57;;;0.00;;
10991;SDS011;5549;47.028;15.514;2024-03-23T15:49:26;0.90;;;0.00;;
10991;SDS011;5549;47.028;15.514;2024-03-23T15:51:57;0.65;;;0.10;;
10991;SDS011;5549;47.028;15.514;2024-03-23T15:54:32;0.47;;;0.00;;
10991;SDS011;5549;47.028;15.514;2024-03-23T15:57:00;1.38;;;0.00;;
10991;SDS011;5549;47.028;15.514;2024-03-23T15:59:29;0.52;;;0.10;;
10991;SDS011;5549;47.028;15.514;2024-03-23T16:01:57;0.30;;;0.00;;
10991;SDS011;5549;47.028;15.514;2024-03-23T16:04:27;0.28;;;0.00;;
10991;SDS011;5549;47.028;15.514;2024-03-23T16:06:55;1.48;;;0.10;;
10991;SDS011;5549;47.028;15.514;2024-03-23T16:09:23;0.50;;;0.00;;
10991;SDS011;5549;47.028;15.514;2024-03-23T16:11:51;0.13;;;0.00;;
10991;SDS011;5549;47.028;15.514;2024-03-23T16:14:18;1.40;;;0.08;;
10991;SDS011;5549;47.028;15.514;2024-03-23T16:16:45;0.00;;;0.00;;
10991;SDS011;5549;47.028;15.514;2024-03-23T16:19:14;0.30;;;0.00;;
10991;SDS011;5549;47.028;15.514;2024-03-23T16:21:43;0.38;;;0.00;;